sensor_id;sensor_type;location;lat;lon;timestamp;P1;durP1;ratioP1;P2;durP2;ratioP2
84113;SDS011;74209;48.846;2.358;2023-11-18T00:00:19;2.97;;;2.50;;
84113;SDS011;74209;48.846;2.358;2023-11-18T00:02:45;3.17;;;2.72;;
84113;SDS011;74209;48.846;2.358;2023-11-18T00:05:11;3.13;;;2.83;;
84113;SDS011;74209;48.846;2.358;2023-11-18T00:07:37;3.00;;;2.60;;
84113;SDS011;74209;48.846;2.358;2023-11-18T00:10:03;3.75;;;2.90;;
84113;SDS011;74209;48.846;2.358;2023-11-18T00:12:30;3.42;;;2.67;;
84113;SDS011;74209;48.846;2.358;2023-11-18T00:14:56;3.88;;;2.88;;
84113;SDS011;74209;48.846;2.358;2023-11-18T00:17:21;2.72;;;2.50;;
84113;SDS011;74209;48.846;2.358;2023-11-18T00:19:47;3.75;;;3.00;;
84113;SDS011;74209;48.846;2.358;2023-11-18T00:22:13;3.78;;;2.92;;
84113;SDS011;74209;48.846;2.358;2023-11-18T00:24:39;3.67;;;2.90;;
84113;SDS011;74209;48.846;2.358;2023-11-18T00:27:04;3.28;;;2.78;;
84113;SDS011;74209;48.846;2.358;2023-11-18T00:29:33;2.78;;;2.58;;
84113;SDS011;74209;48.846;2.358;2023-11-18T00:31:58;3.00;;;2.60;;
84113;SDS011;74209;48.846;2.358;2023-11-18T00:34:28;2.85;;;2.58;;
84113;SDS011;74209;48.846;2.358;2023-11-18T00:36:54;3.15;;;2.67;;
84113;SDS011;74209;48.846;2.358;2023-11-18T00:39:22;3.25;;;2.95;;
84113;SDS011;74209;48.846;2.358;2023-11-18T00:41:48;2.97;;;2.72;;
84113;SDS011;74209;48.846;2.358;2023-11-18T00:44:14;3.42;;;2.80;;
84113;SDS011;74209;48.846;2.358;2023-11-18T00:46:39;3.17;;;2.88;;
84113;SDS011;74209;48.846;2.358;2023-11-18T00:49:05;2.67;;;2.47;;
84113;SDS011;74209;48.846;2.358;2023-11-18T00:51:31;3.65;;;2.97;;
84113;SDS011;74209;48.846;2.358;2023-11-18T00:53:57;3.13;;;2.83;;
84113;SDS011;74209;48.846;2.358;2023-11-18T00:56:23;3.28;;;2.97;;
84113;SDS011;74209;48.846;2.358;2023-11-18T00:58:48;3.55;;;3.05;;
84113;SDS011;74209;48.846;2.358;2023-11-18T01:01:14;3.30;;;2.80;;
84113;SDS011;74209;48.846;2.358;2023-11-18T01:03:46;3.25;;;2.95;;
84113;SDS011;74209;48.846;2.358;2023-11-18T01:06:12;3.15;;;2.75;;
84113;SDS011;74209;48.846;2.358;2023-11-18T01:08:38;3.47;;;3.08;;
84113;SDS011;74209;48.846;2.358;2023-11-18T01:11:04;3.78;;;3.10;;
84113;SDS011;74209;48.846;2.358;2023-11-18T01:13:30;3.08;;;2.60;;
84113;SDS011;74209;48.846;2.358;2023-11-18T01:15:56;3.13;;;2.83;;
84113;SDS011;74209;48.846;2.358;2023-11-18T01:18:22;3.45;;;2.90;;
84113;SDS011;74209;48.846;2.358;2023-11-18T01:20:48;3.40;;;3.10;;
84113;SDS011;74209;48.846;2.358;2023-11-18T01:23:14;3.63;;;3.10;;
84113;SDS011;74209;48.846;2.358;2023-11-18T01:25:39;3.40;;;3.05;;
84113;SDS011;74209;48.846;2.358;2023-11-18T01:28:05;3.30;;;2.90;;
84113;SDS011;74209;48.846;2.358;2023-11-18T01:30:31;3.85;;;3.10;;
84113;SDS011;74209;48.846;2.358;2023-11-18T01:32:57;3.22;;;2.92;;
84113;SDS011;74209;48.846;2.358;2023-11-18T01:35:26;3.10;;;2.80;;
84113;SDS011;74209;48.846;2.358;2023-11-18T01:37:52;3.30;;;3.00;;
84113;SDS011;74209;48.846;2.358;2023-11-18T01:40:19;2.92;;;2.63;;
84113;SDS011;74209;48.846;2.358;2023-11-18T01:42:45;3.25;;;2.92;;
84113;SDS011;74209;48.846;2.358;2023-11-18T01:45:12;3.20;;;2.80;;
84113;SDS011;74209;48.846;2.358;2023-11-18T01:47:39;3.30;;;3.00;;
84113;SDS011;74209;48.846;2.358;2023-11-18T01:50:06;3.15;;;2.70;;
84113;SDS011;74209;48.846;2.358;2023-11-18T01:52:34;2.85;;;2.60;;
84113;SDS011;74209;48.846;2.358;2023-11-18T01:55:00;2.95;;;2.42;;
84113;SDS011;74209;48.846;2.358;2023-11-18T01:57:31;2.90;;;2.60;;
84113;SDS011;74209;48.846;2.358;2023-11-18T01:59:58;3.00;;;2.50;;
84113;SDS011;74209;48.846;2.358;2023-11-18T02:02:25;2.75;;;2.55;;
84113;SDS011;74209;48.846;2.358;2023-11-18T02:04:50;2.97;;;2.60;;
84113;SDS011;74209;48.846;2.358;2023-11-18T02:07:17;3.25;;;2.53;;
84113;SDS011;74209;48.846;2.358;2023-11-18T02:09:43;2.65;;;2.40;;
84113;SDS011;74209;48.846;2.358;2023-11-18T02:14:42;3.15;;;2.53;;
84113;SDS011;74209;48.846;2.358;2023-11-18T02:17:10;2.80;;;2.60;;
84113;SDS011;74209;48.846;2.358;2023-11-18T02:19:39;2.75;;;2.42;;
84113;SDS011;74209;48.846;2.358;2023-11-18T02:22:06;2.90;;;2.50;;
84113;SDS011;74209;48.846;2.358;2023-11-18T02:24:33;2.47;;;2.28;;
84113;SDS011;74209;48.846;2.358;2023-11-18T02:27:02;2.40;;;2.20;;
84113;SDS011;74209;48.846;2.358;2023-11-18T02:29:32;2.70;;;2.30;;
84113;SDS011;74209;48.846;2.358;2023-11-18T02:32:25;2.35;;;2.15;;
84113;SDS011;74209;48.846;2.358;2023-11-18T02:35:17;2.10;;;1.90;;
84113;SDS011;74209;48.846;2.358;2023-11-18T02:37:50;2.67;;;2.28;;
84113;SDS011;74209;48.846;2.358;2023-11-18T02:40:20;3.47;;;2.50;;
84113;SDS011;74209;48.846;2.358;2023-11-18T02:42:50;3.25;;;2.10;;
84113;SDS011;74209;48.846;2.358;2023-11-18T02:45:18;2.22;;;2.03;;
84113;SDS011;74209;48.846;2.358;2023-11-18T02:47:45;1.95;;;1.85;;
84113;SDS011;74209;48.846;2.358;2023-11-18T02:50:11;2.13;;;1.92;;
84113;SDS011;74209;48.846;2.358;2023-11-18T02:52:38;2.35;;;2.00;;
84113;SDS011;74209;48.846;2.358;2023-11-18T02:55:07;2.50;;;1.92;;
84113;SDS011;74209;48.846;2.358;2023-11-18T02:57:37;2.08;;;1.88;;
84113;SDS011;74209;48.846;2.358;2023-11-18T03:00:05;1.80;;;1.70;;
84113;SDS011;74209;48.846;2.358;2023-11-18T03:02:36;2.42;;;1.90;;
84113;SDS011;74209;48.846;2.358;2023-11-18T03:05:04;2.25;;;1.83;;
84113;SDS011;74209;48.846;2.358;2023-11-18T03:07:32;2.63;;;1.98;;
84113;SDS011;74209;48.846;2.358;2023-11-18T03:09:58;1.85;;;1.60;;
84113;SDS011;74209;48.846;2.358;2023-11-18T03:12:24;1.70;;;1.60;;
84113;SDS011;74209;48.846;2.358;2023-11-18T03:14:53;1.50;;;1.40;;
84113;SDS011;74209;48.846;2.358;2023-11-18T03:17:19;1.80;;;1.65;;
84113;SDS011;74209;48.846;2.358;2023-11-18T03:19:45;1.77;;;1.65;;
84113;SDS011;74209;48.846;2.358;2023-11-18T03:22:11;1.92;;;1.65;;
84113;SDS011;74209;48.846;2.358;2023-11-18T03:24:38;1.60;;;1.45;;
84113;SDS011;74209;48.846;2.358;2023-11-18T03:27:04;1.63;;;1.50;;
84113;SDS011;74209;48.846;2.358;2023-11-18T03:29:30;1.90;;;1.67;;
84113;SDS011;74209;48.846;2.358;2023-11-18T03:31:55;1.60;;;1.50;;
84113;SDS011;74209;48.846;2.358;2023-11-18T03:34:22;1.60;;;1.50;;
84113;SDS011;74209;48.846;2.358;2023-11-18T03:36:48;1.63;;;1.52;;
84113;SDS011;74209;48.846;2.358;2023-11-18T03:39:13;1.63;;;1.52;;
84113;SDS011;74209;48.846;2.358;2023-11-18T03:41:39;1.75;;;1.45;;
84113;SDS011;74209;48.846;2.358;2023-11-18T03:44:09;1.90;;;1.70;;
84113;SDS011;74209;48.846;2.358;2023-11-18T03:46:37;1.67;;;1.50;;
84113;SDS011;74209;48.846;2.358;2023-11-18T03:49:03;1.60;;;1.50;;
84113;SDS011;74209;48.846;2.358;2023-11-18T03:51:29;1.67;;;1.48;;
84113;SDS011;74209;48.846;2.358;2023-11-18T03:53:55;2.10;;;1.45;;
84113;SDS011;74209;48.846;2.358;2023-11-18T03:56:20;1.48;;;1.38;;
84113;SDS011;74209;48.846;2.358;2023-11-18T03:58:46;1.48;;;1.30;;
84113;SDS011;74209;48.846;2.358;2023-11-18T04:01:22;1.58;;;1.30;;
84113;SDS011;74209;48.846;2.358;2023-11-18T04:03:48;1.67;;;1.58;;
84113;SDS011;74209;48.846;2.358;2023-11-18T04:06:15;1.45;;;1.27;;
84113;SDS011;74209;48.846;2.358;2023-11-18T04:08:43;1.85;;;1.40;;
84113;SDS011;74209;48.846;2.358;2023-11-18T04:11:12;1.38;;;1.27;;
84113;SDS011;74209;48.846;2.358;2023-11-18T04:13:42;1.20;;;1.10;;
84113;SDS011;74209;48.846;2.358;2023-11-18T04:16:11;1.40;;;1.20;;
84113;SDS011;74209;48.846;2.358;2023-11-18T04:18:38;1.45;;;1.35;;
84113;SDS011;74209;48.846;2.358;2023-11-18T04:21:05;1.40;;;1.30;;
84113;SDS011;74209;48.846;2.358;2023-11-18T04:23:33;1.40;;;1.20;;
84113;SDS011;74209;48.846;2.358;2023-11-18T04:26:03;1.42;;;1.33;;
84113;SDS011;74209;48.846;2.358;2023-11-18T04:28:32;1.35;;;1.20;;
84113;SDS011;74209;48.846;2.358;2023-11-18T04:30:58;1.20;;;1.05;;
84113;SDS011;74209;48.846;2.358;2023-11-18T04:33:24;2.08;;;1.30;;
84113;SDS011;74209;48.846;2.358;2023-11-18T04:35:50;2.45;;;1.42;;
84113;SDS011;74209;48.846;2.358;2023-11-18T04:38:17;1.40;;;1.30;;
84113;SDS011;74209;48.846;2.358;2023-11-18T04:40:43;1.65;;;1.40;;
84113;SDS011;74209;48.846;2.358;2023-11-18T04:43:10;1.52;;;1.30;;
84113;SDS011;74209;48.846;2.358;2023-11-18T04:45:36;1.00;;;1.00;;
84113;SDS011;74209;48.846;2.358;2023-11-18T04:48:02;1.63;;;1.08;;
84113;SDS011;74209;48.846;2.358;2023-11-18T04:50:29;1.40;;;1.10;;
84113;SDS011;74209;48.846;2.358;2023-11-18T04:52:55;1.75;;;1.40;;
84113;SDS011;74209;48.846;2.358;2023-11-18T04:55:21;1.23;;;1.13;;
84113;SDS011;74209;48.846;2.358;2023-11-18T04:57:47;1.30;;;1.20;;
84113;SDS011;74209;48.846;2.358;2023-11-18T05:00:13;1.70;;;1.20;;
84113;SDS011;74209;48.846;2.358;2023-11-18T05:02:41;1.20;;;1.10;;
84113;SDS011;74209;48.846;2.358;2023-11-18T05:05:08;1.45;;;1.23;;
84113;SDS011;74209;48.846;2.358;2023-11-18T05:07:34;1.42;;;1.33;;
84113;SDS011;74209;48.846;2.358;2023-11-18T05:10:00;1.40;;;1.30;;
84113;SDS011;74209;48.846;2.358;2023-11-18T05:12:26;1.30;;;1.10;;
84113;SDS011;74209;48.846;2.358;2023-11-18T05:14:54;2.08;;;1.40;;
84113;SDS011;74209;48.846;2.358;2023-11-18T05:17:23;1.73;;;1.33;;
84113;SDS011;74209;48.846;2.358;2023-11-18T05:19:48;1.20;;;1.10;;
84113;SDS011;74209;48.846;2.358;2023-11-18T05:22:14;1.50;;;1.30;;
84113;SDS011;74209;48.846;2.358;2023-11-18T05:24:40;0.90;;;0.90;;
84113;SDS011;74209;48.846;2.358;2023-11-18T05:27:06;1.52;;;1.10;;
84113;SDS011;74209;48.846;2.358;2023-11-18T05:29:32;1.40;;;1.27;;
84113;SDS011;74209;48.846;2.358;2023-11-18T05:31:59;1.23;;;1.13;;
84113;SDS011;74209;48.846;2.358;2023-11-18T05:34:24;1.35;;;1.15;;
84113;SDS011;74209;48.846;2.358;2023-11-18T05:36:50;1.00;;;0.90;;
84113;SDS011;74209;48.846;2.358;2023-11-18T05:39:19;1.40;;;1.13;;
84113;SDS011;74209;48.846;2.358;2023-11-18T05:41:46;1.95;;;1.00;;
84113;SDS011;74209;48.846;2.358;2023-11-18T05:44:15;1.40;;;1.20;;
84113;SDS011;74209;48.846;2.358;2023-11-18T05:46:48;1.40;;;1.23;;
84113;SDS011;74209;48.846;2.358;2023-11-18T05:49:16;0.90;;;0.90;;
84113;SDS011;74209;48.846;2.358;2023-11-18T05:51:43;1.20;;;1.10;;
84113;SDS011;74209;48.846;2.358;2023-11-18T05:54:09;1.20;;;1.10;;
84113;SDS011;74209;48.846;2.358;2023-11-18T05:56:35;1.92;;;1.15;;
84113;SDS011;74209;48.846;2.358;2023-11-18T05:59:01;1.20;;;1.10;;
84113;SDS011;74209;48.846;2.358;2023-11-18T06:01:27;1.85;;;1.10;;
84113;SDS011;74209;48.846;2.358;2023-11-18T06:03:54;1.30;;;1.02;;
84113;SDS011;74209;48.846;2.358;2023-11-18T06:06:19;1.17;;;1.00;;
84113;SDS011;74209;48.846;2.358;2023-11-18T06:08:46;0.98;;;0.98;;
84113;SDS011;74209;48.846;2.358;2023-11-18T06:11:14;1.10;;;1.00;;
84113;SDS011;74209;48.846;2.358;2023-11-18T06:16:19;1.10;;;1.00;;
84113;SDS011;74209;48.846;2.358;2023-11-18T06:18:46;0.90;;;0.90;;
84113;SDS011;74209;48.846;2.358;2023-11-18T06:21:13;1.27;;;1.00;;
84113;SDS011;74209;48.846;2.358;2023-11-18T06:23:40;1.40;;;0.98;;
84113;SDS011;74209;48.846;2.358;2023-11-18T06:26:07;0.90;;;0.90;;
84113;SDS011;74209;48.846;2.358;2023-11-18T06:28:35;0.90;;;0.80;;
84113;SDS011;74209;48.846;2.358;2023-11-18T06:31:02;0.90;;;0.85;;
84113;SDS011;74209;48.846;2.358;2023-11-18T06:33:28;1.10;;;1.00;;
84113;SDS011;74209;48.846;2.358;2023-11-18T06:35:54;1.02;;;0.80;;
84113;SDS011;74209;48.846;2.358;2023-11-18T06:38:21;1.10;;;1.00;;
84113;SDS011;74209;48.846;2.358;2023-11-18T06:40:47;0.80;;;0.80;;
84113;SDS011;74209;48.846;2.358;2023-11-18T06:43:17;1.10;;;0.90;;
84113;SDS011;74209;48.846;2.358;2023-11-18T06:45:46;1.00;;;0.95;;
84113;SDS011;74209;48.846;2.358;2023-11-18T06:48:13;1.45;;;1.20;;
84113;SDS011;74209;48.846;2.358;2023-11-18T06:50:39;1.00;;;0.90;;
84113;SDS011;74209;48.846;2.358;2023-11-18T06:53:08;0.93;;;0.85;;
84113;SDS011;74209;48.846;2.358;2023-11-18T06:55:35;0.80;;;0.80;;
84113;SDS011;74209;48.846;2.358;2023-11-18T06:58:01;0.85;;;0.80;;
84113;SDS011;74209;48.846;2.358;2023-11-18T07:00:27;1.30;;;0.80;;
84113;SDS011;74209;48.846;2.358;2023-11-18T07:02:54;1.20;;;0.90;;
84113;SDS011;74209;48.846;2.358;2023-11-18T07:05:20;0.70;;;0.70;;
84113;SDS011;74209;48.846;2.358;2023-11-18T07:07:49;1.35;;;0.80;;
84113;SDS011;74209;48.846;2.358;2023-11-18T07:10:14;0.68;;;0.63;;
84113;SDS011;74209;48.846;2.358;2023-11-18T07:12:43;0.88;;;0.80;;
84113;SDS011;74209;48.846;2.358;2023-11-18T07:15:09;0.95;;;0.80;;
84113;SDS011;74209;48.846;2.358;2023-11-18T07:17:35;0.85;;;0.85;;
84113;SDS011;74209;48.846;2.358;2023-11-18T07:20:01;0.68;;;0.68;;
84113;SDS011;74209;48.846;2.358;2023-11-18T07:22:27;0.70;;;0.70;;
84113;SDS011;74209;48.846;2.358;2023-11-18T07:24:54;1.20;;;0.80;;
84113;SDS011;74209;48.846;2.358;2023-11-18T07:27:19;0.98;;;0.70;;
84113;SDS011;74209;48.846;2.358;2023-11-18T07:29:45;0.75;;;0.68;;
84113;SDS011;74209;48.846;2.358;2023-11-18T07:32:11;0.82;;;0.75;;
84113;SDS011;74209;48.846;2.358;2023-11-18T07:34:37;0.95;;;0.70;;
84113;SDS011;74209;48.846;2.358;2023-11-18T07:37:03;0.60;;;0.60;;
84113;SDS011;74209;48.846;2.358;2023-11-18T07:39:28;0.98;;;0.75;;
84113;SDS011;74209;48.846;2.358;2023-11-18T07:42:10;0.77;;;0.77;;
84113;SDS011;74209;48.846;2.358;2023-11-18T07:44:36;1.60;;;0.90;;
84113;SDS011;74209;48.846;2.358;2023-11-18T07:47:03;0.80;;;0.70;;
84113;SDS011;74209;48.846;2.358;2023-11-18T07:49:30;0.73;;;0.60;;
84113;SDS011;74209;48.846;2.358;2023-11-18T07:51:56;0.70;;;0.65;;
84113;SDS011;74209;48.846;2.358;2023-11-18T07:54:22;1.02;;;0.70;;
84113;SDS011;74209;48.846;2.358;2023-11-18T07:56:48;0.73;;;0.70;;
84113;SDS011;74209;48.846;2.358;2023-11-18T07:59:16;0.82;;;0.60;;
84113;SDS011;74209;48.846;2.358;2023-11-18T08:01:43;0.70;;;0.70;;
84113;SDS011;74209;48.846;2.358;2023-11-18T08:04:11;0.60;;;0.60;;
84113;SDS011;74209;48.846;2.358;2023-11-18T08:06:38;0.63;;;0.63;;
84113;SDS011;74209;48.846;2.358;2023-11-18T08:09:04;0.68;;;0.65;;
84113;SDS011;74209;48.846;2.358;2023-11-18T08:11:35;0.80;;;0.60;;
84113;SDS011;74209;48.846;2.358;2023-11-18T08:14:01;1.02;;;0.80;;
84113;SDS011;74209;48.846;2.358;2023-11-18T08:16:27;0.60;;;0.57;;
84113;SDS011;74209;48.846;2.358;2023-11-18T08:18:54;0.70;;;0.68;;
84113;SDS011;74209;48.846;2.358;2023-11-18T08:21:20;0.68;;;0.68;;
84113;SDS011;74209;48.846;2.358;2023-11-18T08:23:47;0.50;;;0.50;;
84113;SDS011;74209;48.846;2.358;2023-11-18T08:26:13;0.50;;;0.50;;
84113;SDS011;74209;48.846;2.358;2023-11-18T08:28:39;0.77;;;0.73;;
84113;SDS011;74209;48.846;2.358;2023-11-18T08:31:05;0.60;;;0.60;;
84113;SDS011;74209;48.846;2.358;2023-11-18T08:33:32;0.70;;;0.70;;
84113;SDS011;74209;48.846;2.358;2023-11-18T08:35:59;0.63;;;0.63;;
84113;SDS011;74209;48.846;2.358;2023-11-18T08:38:26;0.80;;;0.77;;
84113;SDS011;74209;48.846;2.358;2023-11-18T08:40:53;0.60;;;0.60;;
84113;SDS011;74209;48.846;2.358;2023-11-18T08:43:20;0.65;;;0.65;;
84113;SDS011;74209;48.846;2.358;2023-11-18T08:45:46;0.60;;;0.60;;
84113;SDS011;74209;48.846;2.358;2023-11-18T08:48:12;0.50;;;0.50;;
84113;SDS011;74209;48.846;2.358;2023-11-18T08:50:38;0.50;;;0.50;;
84113;SDS011;74209;48.846;2.358;2023-11-18T08:53:08;0.60;;;0.60;;
84113;SDS011;74209;48.846;2.358;2023-11-18T08:55:34;0.55;;;0.55;;
84113;SDS011;74209;48.846;2.358;2023-11-18T08:58:15;0.93;;;0.65;;
84113;SDS011;74209;48.846;2.358;2023-11-18T09:00:44;0.73;;;0.60;;
84113;SDS011;74209;48.846;2.358;2023-11-18T09:03:11;0.70;;;0.70;;
84113;SDS011;74209;48.846;2.358;2023-11-18T09:05:49;0.88;;;0.70;;
84113;SDS011;74209;48.846;2.358;2023-11-18T09:08:29;0.70;;;0.60;;
84113;SDS011;74209;48.846;2.358;2023-11-18T09:11:08;0.60;;;0.50;;
84113;SDS011;74209;48.846;2.358;2023-11-18T09:13:36;0.60;;;0.60;;
84113;SDS011;74209;48.846;2.358;2023-11-18T09:16:02;0.50;;;0.50;;
84113;SDS011;74209;48.846;2.358;2023-11-18T09:18:33;0.50;;;0.50;;
84113;SDS011;74209;48.846;2.358;2023-11-18T09:21:00;0.50;;;0.50;;
84113;SDS011;74209;48.846;2.358;2023-11-18T09:23:26;0.65;;;0.50;;
84113;SDS011;74209;48.846;2.358;2023-11-18T09:25:53;0.60;;;0.50;;
84113;SDS011;74209;48.846;2.358;2023-11-18T09:28:20;0.60;;;0.60;;
84113;SDS011;74209;48.846;2.358;2023-11-18T09:30:47;0.60;;;0.50;;
84113;SDS011;74209;48.846;2.358;2023-11-18T09:33:22;0.80;;;0.50;;
84113;SDS011;74209;48.846;2.358;2023-11-18T09:36:01;0.60;;;0.60;;
84113;SDS011;74209;48.846;2.358;2023-11-18T09:38:34;0.70;;;0.70;;
84113;SDS011;74209;48.846;2.358;2023-11-18T09:41:01;0.50;;;0.50;;
84113;SDS011;74209;48.846;2.358;2023-11-18T09:43:29;0.93;;;0.55;;
84113;SDS011;74209;48.846;2.358;2023-11-18T09:46:13;0.70;;;0.70;;
84113;SDS011;74209;48.846;2.358;2023-11-18T09:48:52;0.50;;;0.50;;
84113;SDS011;74209;48.846;2.358;2023-11-18T09:51:27;0.80;;;0.60;;
84113;SDS011;74209;48.846;2.358;2023-11-18T09:54:01;0.60;;;0.60;;
84113;SDS011;74209;48.846;2.358;2023-11-18T09:59:16;0.70;;;0.70;;
84113;SDS011;74209;48.846;2.358;2023-11-18T10:01:53;0.60;;;0.60;;
84113;SDS011;74209;48.846;2.358;2023-11-18T10:04:22;0.52;;;0.52;;
84113;SDS011;74209;48.846;2.358;2023-11-18T10:06:53;0.50;;;0.50;;
84113;SDS011;74209;48.846;2.358;2023-11-18T10:09:23;0.60;;;0.60;;
84113;SDS011;74209;48.846;2.358;2023-11-18T10:12:02;0.60;;;0.60;;
84113;SDS011;74209;48.846;2.358;2023-11-18T10:14:34;0.73;;;0.57;;
84113;SDS011;74209;48.846;2.358;2023-11-18T10:17:06;0.50;;;0.50;;
84113;SDS011;74209;48.846;2.358;2023-11-18T10:22:25;0.75;;;0.60;;
84113;SDS011;74209;48.846;2.358;2023-11-18T10:24:52;0.70;;;0.50;;
84113;SDS011;74209;48.846;2.358;2023-11-18T10:27:28;0.85;;;0.60;;
84113;SDS011;74209;48.846;2.358;2023-11-18T10:29:58;1.05;;;0.50;;
84113;SDS011;74209;48.846;2.358;2023-11-18T10:32:27;0.73;;;0.57;;
84113;SDS011;74209;48.846;2.358;2023-11-18T10:34:56;0.57;;;0.50;;
84113;SDS011;74209;48.846;2.358;2023-11-18T10:37:22;0.60;;;0.60;;
84113;SDS011;74209;48.846;2.358;2023-11-18T10:39:49;0.57;;;0.57;;
84113;SDS011;74209;48.846;2.358;2023-11-18T10:42:16;0.55;;;0.55;;
84113;SDS011;74209;48.846;2.358;2023-11-18T10:47:27;0.60;;;0.60;;
84113;SDS011;74209;48.846;2.358;2023-11-18T10:49:54;0.50;;;0.50;;
84113;SDS011;74209;48.846;2.358;2023-11-18T10:52:23;0.80;;;0.75;;
84113;SDS011;74209;48.846;2.358;2023-11-18T10:54:51;0.60;;;0.60;;
84113;SDS011;74209;48.846;2.358;2023-11-18T10:57:21;0.50;;;0.50;;
84113;SDS011;74209;48.846;2.358;2023-11-18T11:00:00;0.70;;;0.70;;
84113;SDS011;74209;48.846;2.358;2023-11-18T11:02:32;0.70;;;0.50;;
84113;SDS011;74209;48.846;2.358;2023-11-18T11:05:03;0.63;;;0.63;;
84113;SDS011;74209;48.846;2.358;2023-11-18T11:07:29;1.00;;;0.65;;
84113;SDS011;74209;48.846;2.358;2023-11-18T11:09:56;0.50;;;0.50;;
84113;SDS011;74209;48.846;2.358;2023-11-18T11:12:21;0.60;;;0.60;;
84113;SDS011;74209;48.846;2.358;2023-11-18T11:15:00;0.60;;;0.60;;
84113;SDS011;74209;48.846;2.358;2023-11-18T11:17:32;0.60;;;0.60;;
84113;SDS011;74209;48.846;2.358;2023-11-18T11:23:14;0.60;;;0.50;;
84113;SDS011;74209;48.846;2.358;2023-11-18T11:26:06;0.60;;;0.50;;
84113;SDS011;74209;48.846;2.358;2023-11-18T11:29:14;0.50;;;0.50;;
84113;SDS011;74209;48.846;2.358;2023-11-18T11:31:48;0.60;;;0.60;;
84113;SDS011;74209;48.846;2.358;2023-11-18T11:34:26;0.57;;;0.57;;
84113;SDS011;74209;48.846;2.358;2023-11-18T11:36:56;0.70;;;0.70;;
84113;SDS011;74209;48.846;2.358;2023-11-18T11:39:25;0.50;;;0.50;;
84113;SDS011;74209;48.846;2.358;2023-11-18T11:41:51;0.75;;;0.60;;
84113;SDS011;74209;48.846;2.358;2023-11-18T11:44:19;0.60;;;0.60;;
84113;SDS011;74209;48.846;2.358;2023-11-18T11:46:46;1.00;;;0.60;;
84113;SDS011;74209;48.846;2.358;2023-11-18T11:49:18;0.60;;;0.60;;
84113;SDS011;74209;48.846;2.358;2023-11-18T11:54:27;1.25;;;0.70;;
84113;SDS011;74209;48.846;2.358;2023-11-18T11:56:57;0.60;;;0.60;;
84113;SDS011;74209;48.846;2.358;2023-11-18T12:02:09;0.70;;;0.70;;
84113;SDS011;74209;48.846;2.358;2023-11-18T12:04:44;0.60;;;0.60;;
84113;SDS011;74209;48.846;2.358;2023-11-18T12:07:10;0.60;;;0.60;;
84113;SDS011;74209;48.846;2.358;2023-11-18T12:09:40;0.52;;;0.52;;
84113;SDS011;74209;48.846;2.358;2023-11-18T12:12:18;0.60;;;0.60;;
84113;SDS011;74209;48.846;2.358;2023-11-18T12:18:28;1.15;;;0.70;;
84113;SDS011;74209;48.846;2.358;2023-11-18T12:20:41;0.60;;;0.60;;
84113;SDS011;74209;48.846;2.358;2023-11-18T12:23:20;0.60;;;0.60;;
84113;SDS011;74209;48.846;2.358;2023-11-18T12:25:50;0.70;;;0.70;;
84113;SDS011;74209;48.846;2.358;2023-11-18T12:28:20;0.93;;;0.60;;
84113;SDS011;74209;48.846;2.358;2023-11-18T12:30:51;0.70;;;0.60;;
84113;SDS011;74209;48.846;2.358;2023-11-18T12:33:25;0.60;;;0.60;;
84113;SDS011;74209;48.846;2.358;2023-11-18T12:42:15;0.85;;;0.70;;
84113;SDS011;74209;48.846;2.358;2023-11-18T12:45:12;0.70;;;0.63;;
84113;SDS011;74209;48.846;2.358;2023-11-18T12:47:58;1.05;;;0.60;;
84113;SDS011;74209;48.846;2.358;2023-11-18T12:50:37;0.70;;;0.60;;
84113;SDS011;74209;48.846;2.358;2023-11-18T12:53:05;0.70;;;0.60;;
84113;SDS011;74209;48.846;2.358;2023-11-18T12:55:32;0.75;;;0.70;;
84113;SDS011;74209;48.846;2.358;2023-11-18T12:58:00;0.75;;;0.60;;
84113;SDS011;74209;48.846;2.358;2023-11-18T13:00:27;0.60;;;0.60;;
84113;SDS011;74209;48.846;2.358;2023-11-18T13:02:55;0.77;;;0.70;;
84113;SDS011;74209;48.846;2.358;2023-11-18T13:05:23;0.70;;;0.70;;
84113;SDS011;74209;48.846;2.358;2023-11-18T13:07:54;0.70;;;0.70;;
84113;SDS011;74209;48.846;2.358;2023-11-18T13:10:25;0.95;;;0.60;;
84113;SDS011;74209;48.846;2.358;2023-11-18T13:12:52;0.63;;;0.63;;
84113;SDS011;74209;48.846;2.358;2023-11-18T13:15:18;0.80;;;0.50;;
84113;SDS011;74209;48.846;2.358;2023-11-18T13:18:00;0.63;;;0.63;;
84113;SDS011;74209;48.846;2.358;2023-11-18T13:20:31;0.60;;;0.60;;
84113;SDS011;74209;48.846;2.358;2023-11-18T13:23:00;0.70;;;0.70;;
84113;SDS011;74209;48.846;2.358;2023-11-18T13:25:26;0.60;;;0.60;;
84113;SDS011;74209;48.846;2.358;2023-11-18T13:27:52;0.73;;;0.70;;
84113;SDS011;74209;48.846;2.358;2023-11-18T13:30:19;0.60;;;0.60;;
84113;SDS011;74209;48.846;2.358;2023-11-18T13:32:45;0.70;;;0.70;;
84113;SDS011;74209;48.846;2.358;2023-11-18T13:35:11;0.65;;;0.65;;
84113;SDS011;74209;48.846;2.358;2023-11-18T13:37:39;0.70;;;0.70;;
84113;SDS011;74209;48.846;2.358;2023-11-18T13:40:06;1.02;;;0.70;;
84113;SDS011;74209;48.846;2.358;2023-11-18T13:42:33;0.60;;;0.60;;
84113;SDS011;74209;48.846;2.358;2023-11-18T13:45:13;0.57;;;0.57;;
84113;SDS011;74209;48.846;2.358;2023-11-18T13:47:49;0.60;;;0.60;;
84113;SDS011;74209;48.846;2.358;2023-11-18T13:50:16;0.50;;;0.50;;
84113;SDS011;74209;48.846;2.358;2023-11-18T13:52:43;0.60;;;0.60;;
84113;SDS011;74209;48.846;2.358;2023-11-18T13:55:08;0.63;;;0.63;;
84113;SDS011;74209;48.846;2.358;2023-11-18T13:57:42;0.60;;;0.60;;
84113;SDS011;74209;48.846;2.358;2023-11-18T14:00:09;0.88;;;0.80;;
84113;SDS011;74209;48.846;2.358;2023-11-18T14:02:40;0.50;;;0.50;;
84113;SDS011;74209;48.846;2.358;2023-11-18T14:05:14;0.52;;;0.52;;
84113;SDS011;74209;48.846;2.358;2023-11-18T14:07:41;0.57;;;0.57;;
84113;SDS011;74209;48.846;2.358;2023-11-18T14:10:08;0.47;;;0.47;;
84113;SDS011;74209;48.846;2.358;2023-11-18T14:12:38;0.60;;;0.60;;
84113;SDS011;74209;48.846;2.358;2023-11-18T14:15:04;0.88;;;0.60;;
84113;SDS011;74209;48.846;2.358;2023-11-18T14:17:30;1.35;;;0.60;;
84113;SDS011;74209;48.846;2.358;2023-11-18T14:19:56;0.60;;;0.60;;
84113;SDS011;74209;48.846;2.358;2023-11-18T14:22:21;0.73;;;0.73;;
84113;SDS011;74209;48.846;2.358;2023-11-18T14:24:48;0.60;;;0.52;;
84113;SDS011;74209;48.846;2.358;2023-11-18T14:27:14;0.60;;;0.60;;
84113;SDS011;74209;48.846;2.358;2023-11-18T14:29:39;0.60;;;0.57;;
84113;SDS011;74209;48.846;2.358;2023-11-18T14:32:05;0.50;;;0.50;;
84113;SDS011;74209;48.846;2.358;2023-11-18T14:34:31;1.02;;;0.60;;
84113;SDS011;74209;48.846;2.358;2023-11-18T14:36:56;0.60;;;0.60;;
84113;SDS011;74209;48.846;2.358;2023-11-18T14:39:22;0.50;;;0.50;;
84113;SDS011;74209;48.846;2.358;2023-11-18T14:41:48;0.70;;;0.70;;
84113;SDS011;74209;48.846;2.358;2023-11-18T14:44:15;0.60;;;0.55;;
84113;SDS011;74209;48.846;2.358;2023-11-18T14:46:42;0.68;;;0.68;;
84113;SDS011;74209;48.846;2.358;2023-11-18T14:49:08;0.60;;;0.60;;
84113;SDS011;74209;48.846;2.358;2023-11-18T14:51:35;0.50;;;0.50;;
84113;SDS011;74209;48.846;2.358;2023-11-18T14:54:01;0.70;;;0.70;;
84113;SDS011;74209;48.846;2.358;2023-11-18T14:56:27;1.35;;;0.80;;
84113;SDS011;74209;48.846;2.358;2023-11-18T14:58:53;0.68;;;0.60;;
84113;SDS011;74209;48.846;2.358;2023-11-18T15:01:18;0.80;;;0.60;;
84113;SDS011;74209;48.846;2.358;2023-11-18T15:03:45;0.60;;;0.60;;
84113;SDS011;74209;48.846;2.358;2023-11-18T15:06:11;0.50;;;0.50;;
84113;SDS011;74209;48.846;2.358;2023-11-18T15:08:37;0.65;;;0.63;;
84113;SDS011;74209;48.846;2.358;2023-11-18T15:11:04;0.60;;;0.60;;
84113;SDS011;74209;48.846;2.358;2023-11-18T15:13:31;0.50;;;0.50;;
84113;SDS011;74209;48.846;2.358;2023-11-18T15:15:57;0.80;;;0.65;;
84113;SDS011;74209;48.846;2.358;2023-11-18T15:18:23;0.68;;;0.60;;
84113;SDS011;74209;48.846;2.358;2023-11-18T15:20:49;0.77;;;0.70;;
84113;SDS011;74209;48.846;2.358;2023-11-18T15:23:17;0.73;;;0.60;;
84113;SDS011;74209;48.846;2.358;2023-11-18T15:25:42;0.60;;;0.60;;